sensor_id;sensor_type;location;lat;lon;timestamp;pressure;altitude;pressure_sealevel;temperature;humidity
66479;BME280;53294;47.912;13.526;2023-04-27T00:01:09;96249.97;;;8.17;57.73
66479;BME280;53294;47.912;13.526;2023-04-27T00:03:37;96250.06;;;8.06;57.92
66479;BME280;53294;47.912;13.526;2023-04-27T00:06:04;96241.94;;;8.22;57.20
66479;BME280;53294;47.912;13.526;2023-04-27T00:08:31;96247.25;;;8.27;56.83
66479;BME280;53294;47.912;13.526;2023-04-27T00:10:58;96234.38;;;8.29;56.78
66479;BME280;53294;47.912;13.526;2023-04-27T00:13:25;96229.25;;;8.33;56.54
66479;BME280;53294;47.912;13.526;2023-04-27T00:15:52;96231.66;;;8.34;56.54
66479;BME280;53294;47.912;13.526;2023-04-27T00:18:19;96229.03;;;8.29;56.78
66479;BME280;53294;47.912;13.526;2023-04-27T00:20:45;96238.91;;;7.94;58.44
66479;BME280;53294;47.912;13.526;2023-04-27T00:23:12;96229.91;;;8.19;57.32
66479;BME280;53294;47.912;13.526;2023-04-27T00:25:39;96221.00;;;8.29;56.81
66479;BME280;53294;47.912;13.526;2023-04-27T00:28:05;96223.13;;;8.32;56.61
66479;BME280;53294;47.912;13.526;2023-04-27T00:30:32;96225.56;;;8.29;56.73
66479;BME280;53294;47.912;13.526;2023-04-27T00:32:59;96212.97;;;8.29;56.88
66479;BME280;53294;47.912;13.526;2023-04-27T00:35:26;96219.38;;;8.33;56.62
66479;BME280;53294;47.912;13.526;2023-04-27T00:37:53;96216.53;;;8.19;57.41
66479;BME280;53294;47.912;13.526;2023-04-27T00:40:20;96220.31;;;8.13;57.55
66479;BME280;53294;47.912;13.526;2023-04-27T00:42:47;96221.91;;;8.14;57.57
66479;BME280;53294;47.912;13.526;2023-04-27T00:45:13;96222.16;;;8.18;57.53
66479;BME280;53294;47.912;13.526;2023-04-27T00:47:41;96219.53;;;8.13;57.67
66479;BME280;53294;47.912;13.526;2023-04-27T00:50:08;96213.63;;;8.16;57.64
66479;BME280;53294;47.912;13.526;2023-04-27T00:52:36;96217.69;;;8.08;57.95
66479;BME280;53294;47.912;13.526;2023-04-27T00:55:04;96223.63;;;7.95;58.63
66479;BME280;53294;47.912;13.526;2023-04-27T00:57:32;96221.91;;;8.14;57.76
66479;BME280;53294;47.912;13.526;2023-04-27T00:59:59;96214.16;;;8.13;57.69
66479;BME280;53294;47.912;13.526;2023-04-27T01:02:27;96213.16;;;7.98;58.39
66479;BME280;53294;47.912;13.526;2023-04-27T01:04:55;96224.97;;;7.97;58.46
66479;BME280;53294;47.912;13.526;2023-04-27T01:07:25;96217.53;;;7.84;59.31
66479;BME280;53294;47.912;13.526;2023-04-27T01:09:52;96218.59;;;7.88;58.99
66479;BME280;53294;47.912;13.526;2023-04-27T01:12:19;96213.25;;;7.88;59.01
66479;BME280;53294;47.912;13.526;2023-04-27T01:14:46;96210.00;;;7.96;58.71
66479;BME280;53294;47.912;13.526;2023-04-27T01:17:13;96201.47;;;7.89;59.15
66479;BME280;53294;47.912;13.526;2023-04-27T01:19:40;96210.00;;;7.96;58.95
66479;BME280;53294;47.912;13.526;2023-04-27T01:22:06;96210.50;;;8.03;58.54
66479;BME280;53294;47.912;13.526;2023-04-27T01:24:33;96208.09;;;7.97;58.87
66479;BME280;53294;47.912;13.526;2023-04-27T01:27:00;96207.28;;;8.01;58.70
66479;BME280;53294;47.912;13.526;2023-04-27T01:29:27;96209.16;;;8.01;58.74
66479;BME280;53294;47.912;13.526;2023-04-27T01:31:54;96201.91;;;8.01;59.00
66479;BME280;53294;47.912;13.526;2023-04-27T01:34:21;96208.38;;;7.95;59.04
66479;BME280;53294;47.912;13.526;2023-04-27T01:36:48;96212.06;;;8.04;58.75
66479;BME280;53294;47.912;13.526;2023-04-27T01:39:14;96216.31;;;8.11;58.46
66479;BME280;53294;47.912;13.526;2023-04-27T01:41:41;96204.09;;;7.99;59.05
66479;BME280;53294;47.912;13.526;2023-04-27T01:44:08;96218.06;;;7.86;59.77
66479;BME280;53294;47.912;13.526;2023-04-27T01:46:35;96221.00;;;7.84;59.93
66479;BME280;53294;47.912;13.526;2023-04-27T01:49:01;96224.97;;;7.92;59.46
66479;BME280;53294;47.912;13.526;2023-04-27T01:51:28;96221.19;;;8.03;58.91
66479;BME280;53294;47.912;13.526;2023-04-27T01:53:55;96224.94;;;8.02;58.84
66479;BME280;53294;47.912;13.526;2023-04-27T01:56:22;96219.56;;;8.02;59.03
66479;BME280;53294;47.912;13.526;2023-04-27T01:58:48;96223.81;;;8.08;58.61
66479;BME280;53294;47.912;13.526;2023-04-27T02:01:15;96222.75;;;8.04;58.80
66479;BME280;53294;47.912;13.526;2023-04-27T02:03:41;96220.72;;;7.91;59.44
66479;BME280;53294;47.912;13.526;2023-04-27T02:06:08;96219.34;;;7.99;58.66
66479;BME280;53294;47.912;13.526;2023-04-27T02:08:35;96228.19;;;7.94;58.71
66479;BME280;53294;47.912;13.526;2023-04-27T02:11:02;96229.84;;;7.85;59.45
66479;BME280;53294;47.912;13.526;2023-04-27T02:13:29;96231.16;;;7.87;59.14
66479;BME280;53294;47.912;13.526;2023-04-27T02:15:55;96226.59;;;7.93;58.94
66479;BME280;53294;47.912;13.526;2023-04-27T02:18:22;96230.84;;;7.99;58.73
66479;BME280;53294;47.912;13.526;2023-04-27T02:20:49;96238.59;;;8.01;58.81
66479;BME280;53294;47.912;13.526;2023-04-27T02:23:16;96243.66;;;8.02;58.50
66479;BME280;53294;47.912;13.526;2023-04-27T02:25:43;96237.56;;;7.91;58.79
66479;BME280;53294;47.912;13.526;2023-04-27T02:28:12;96235.94;;;7.96;58.75
66479;BME280;53294;47.912;13.526;2023-04-27T02:30:40;96243.94;;;8.01;58.59
66479;BME280;53294;47.912;13.526;2023-04-27T02:33:06;96240.75;;;7.99;58.50
66479;BME280;53294;47.912;13.526;2023-04-27T02:35:33;96236.50;;;7.93;58.86
66479;BME280;53294;47.912;13.526;2023-04-27T02:38:00;96242.63;;;7.93;58.86
66479;BME280;53294;47.912;13.526;2023-04-27T02:40:27;96240.28;;;7.86;59.24
66479;BME280;53294;47.912;13.526;2023-04-27T02:42:53;96231.94;;;7.93;58.72
66479;BME280;53294;47.912;13.526;2023-04-27T02:45:20;96232.50;;;7.90;58.86
66479;BME280;53294;47.912;13.526;2023-04-27T02:47:47;96237.06;;;7.89;58.92
66479;BME280;53294;47.912;13.526;2023-04-27T02:50:14;96236.53;;;7.82;59.27
66479;BME280;53294;47.912;13.526;2023-04-27T02:52:41;96240.56;;;7.85;59.04
66479;BME280;53294;47.912;13.526;2023-04-27T02:55:08;96242.19;;;7.76;59.35
66479;BME280;53294;47.912;13.526;2023-04-27T02:57:34;96240.56;;;7.80;59.28
66479;BME280;53294;47.912;13.526;2023-04-27T03:00:02;96236.31;;;7.73;59.66
66479;BME280;53294;47.912;13.526;2023-04-27T03:02:30;96237.91;;;7.75;59.54
66479;BME280;53294;47.912;13.526;2023-04-27T03:04:57;96239.66;;;7.45;61.04
66479;BME280;53294;47.912;13.526;2023-04-27T03:07:24;96242.28;;;7.60;60.14
66479;BME280;53294;47.912;13.526;2023-04-27T03:09:51;96238.50;;;7.66;59.68
66479;BME280;53294;47.912;13.526;2023-04-27T03:12:17;96243.91;;;7.51;60.49
66479;BME280;53294;47.912;13.526;2023-04-27T03:14:44;96244.41;;;7.58;59.97
66479;BME280;53294;47.912;13.526;2023-04-27T03:17:11;96240.34;;;7.71;59.52
66479;BME280;53294;47.912;13.526;2023-04-27T03:19:37;96230.97;;;7.73;59.21
66479;BME280;53294;47.912;13.526;2023-04-27T03:22:04;96235.75;;;7.77;59.11
66479;BME280;53294;47.912;13.526;2023-04-27T03:24:31;96236.31;;;7.79;59.12
66479;BME280;53294;47.912;13.526;2023-04-27T03:26:58;96234.19;;;7.70;59.30
66479;BME280;53294;47.912;13.526;2023-04-27T03:29:25;96236.34;;;7.68;59.33
66479;BME280;53294;47.912;13.526;2023-04-27T03:31:51;96237.97;;;7.69;59.10
66479;BME280;53294;47.912;13.526;2023-04-27T03:34:18;96241.44;;;7.65;59.04
66479;BME280;53294;47.912;13.526;2023-04-27T03:36:47;96242.28;;;7.55;59.61
66479;BME280;53294;47.912;13.526;2023-04-27T03:39:14;96244.75;;;7.36;60.68
66479;BME280;53294;47.912;13.526;2023-04-27T03:41:41;96239.59;;;7.55;59.74
66479;BME280;53294;47.912;13.526;2023-04-27T03:44:08;96236.53;;;7.17;61.52
66479;BME280;53294;47.912;13.526;2023-04-27T03:46:35;96234.91;;;7.26;60.93
66479;BME280;53294;47.912;13.526;2023-04-27T03:49:01;96237.03;;;7.40;60.42
66479;BME280;53294;47.912;13.526;2023-04-27T03:51:29;96231.41;;;7.36;60.55
66479;BME280;53294;47.912;13.526;2023-04-27T03:53:58;96241.81;;;7.37;60.35
66479;BME280;53294;47.912;13.526;2023-04-27T03:56:25;96232.19;;;7.42;60.10
66479;BME280;53294;47.912;13.526;2023-04-27T03:58:52;96242.84;;;7.52;59.53
66479;BME280;53294;47.912;13.526;2023-04-27T04:01:18;96245.78;;;7.45;59.80
66479;BME280;53294;47.912;13.526;2023-04-27T04:03:45;96246.03;;;7.54;59.46
66479;BME280;53294;47.912;13.526;2023-04-27T04:06:13;96250.38;;;7.40;59.92
66479;BME280;53294;47.912;13.526;2023-04-27T04:08:40;96254.59;;;7.51;59.56
66479;BME280;53294;47.912;13.526;2023-04-27T04:11:07;96246.28;;;7.58;59.46
66479;BME280;53294;47.912;13.526;2023-04-27T04:13:34;96256.47;;;7.55;59.58
66479;BME280;53294;47.912;13.526;2023-04-27T04:16:06;96262.38;;;7.47;59.94
66479;BME280;53294;47.912;13.526;2023-04-27T04:18:33;96261.00;;;7.55;59.89
66479;BME280;53294;47.912;13.526;2023-04-27T04:21:01;96266.59;;;7.59;59.53
66479;BME280;53294;47.912;13.526;2023-04-27T04:23:27;96256.72;;;7.54;59.75
66479;BME280;53294;47.912;13.526;2023-04-27T04:25:55;96267.41;;;7.59;59.62
66479;BME280;53294;47.912;13.526;2023-04-27T04:28:22;96270.31;;;7.63;59.60
66479;BME280;53294;47.912;13.526;2023-04-27T04:30:49;96268.97;;;7.65;59.58
66479;BME280;53294;47.912;13.526;2023-04-27T04:33:16;96279.69;;;7.55;60.20
66479;BME280;53294;47.912;13.526;2023-04-27T04:35:43;96284.03;;;7.41;60.94
66479;BME280;53294;47.912;13.526;2023-04-27T04:38:10;96276.81;;;7.46;60.94
66479;BME280;53294;47.912;13.526;2023-04-27T04:40:39;96292.53;;;7.53;60.62
66479;BME280;53294;47.912;13.526;2023-04-27T04:43:10;96290.91;;;7.62;60.37
66479;BME280;53294;47.912;13.526;2023-04-27T04:45:37;96287.19;;;7.63;60.61
66479;BME280;53294;47.912;13.526;2023-04-27T04:48:04;96288.22;;;7.72;60.58
66479;BME280;53294;47.912;13.526;2023-04-27T04:50:31;96290.56;;;7.79;60.15
66479;BME280;53294;47.912;13.526;2023-04-27T04:52:57;96292.97;;;7.81;60.27
66479;BME280;53294;47.912;13.526;2023-04-27T04:55:27;96298.06;;;7.82;60.63
66479;BME280;53294;47.912;13.526;2023-04-27T04:57:54;96305.31;;;7.71;61.21
66479;BME280;53294;47.912;13.526;2023-04-27T05:00:20;96314.41;;;7.76;61.32
66479;BME280;53294;47.912;13.526;2023-04-27T05:02:48;96316.53;;;7.79;61.20
66479;BME280;53294;47.912;13.526;2023-04-27T05:05:14;96313.53;;;7.90;61.08
66479;BME280;53294;47.912;13.526;2023-04-27T05:07:42;96322.28;;;8.01;60.93
66479;BME280;53294;47.912;13.526;2023-04-27T05:10:08;96319.63;;;8.06;60.75
66479;BME280;53294;47.912;13.526;2023-04-27T05:12:35;96322.81;;;8.08;61.00
66479;BME280;53294;47.912;13.526;2023-04-27T05:15:03;96320.44;;;8.02;61.50
66479;BME280;53294;47.912;13.526;2023-04-27T05:17:29;96334.59;;;8.02;61.63
66479;BME280;53294;47.912;13.526;2023-04-27T05:19:56;96326.00;;;8.11;61.22
66479;BME280;53294;47.912;13.526;2023-04-27T05:22:23;96337.16;;;8.23;60.99
66479;BME280;53294;47.912;13.526;2023-04-27T05:24:50;96339.81;;;8.28;61.21
66479;BME280;53294;47.912;13.526;2023-04-27T05:27:17;96339.25;;;8.31;60.99
66479;BME280;53294;47.912;13.526;2023-04-27T05:29:43;96344.94;;;8.24;61.65
66479;BME280;53294;47.912;13.526;2023-04-27T05:32:10;96347.53;;;7.85;64.29
66479;BME280;53294;47.912;13.526;2023-04-27T05:34:37;96346.88;;;8.08;62.83
66479;BME280;53294;47.912;13.526;2023-04-27T05:37:03;96353.34;;;8.02;63.56
66479;BME280;53294;47.912;13.526;2023-04-27T05:39:30;96351.59;;;7.62;67.16
66479;BME280;53294;47.912;13.526;2023-04-27T05:41:57;96351.94;;;7.29;68.83
66479;BME280;53294;47.912;13.526;2023-04-27T05:44:24;96347.13;;;7.26;69.57
66479;BME280;53294;47.912;13.526;2023-04-27T05:46:54;96343.34;;;7.48;68.50
66479;BME280;53294;47.912;13.526;2023-04-27T05:49:22;96338.00;;;7.48;67.54
66479;BME280;53294;47.912;13.526;2023-04-27T05:51:48;96347.25;;;7.86;65.59
66479;BME280;53294;47.912;13.526;2023-04-27T05:54:15;96342.09;;;8.05;64.83
66479;BME280;53294;47.912;13.526;2023-04-27T05:56:42;96340.66;;;8.23;64.26
66479;BME280;53294;47.912;13.526;2023-04-27T05:59:09;96343.59;;;8.27;64.11
66479;BME280;53294;47.912;13.526;2023-04-27T06:01:35;96346.47;;;8.36;63.71
66479;BME280;53294;47.912;13.526;2023-04-27T06:04:02;96352.03;;;8.50;63.28
66479;BME280;53294;47.912;13.526;2023-04-27T06:06:33;96346.34;;;8.61;62.93
66479;BME280;53294;47.912;13.526;2023-04-27T06:09:00;96350.97;;;8.51;63.74
66479;BME280;53294;47.912;13.526;2023-04-27T06:11:27;96348.84;;;8.37;64.57
66479;BME280;53294;47.912;13.526;2023-04-27T06:13:54;96347.22;;;8.47;64.42
66479;BME280;53294;47.912;13.526;2023-04-27T06:16:20;96345.00;;;8.59;64.29
66479;BME280;53294;47.912;13.526;2023-04-27T06:18:49;96346.38;;;8.56;64.74
66479;BME280;53294;47.912;13.526;2023-04-27T06:21:16;96347.97;;;8.57;65.10
66479;BME280;53294;47.912;13.526;2023-04-27T06:23:43;96351.59;;;8.77;64.58
66479;BME280;53294;47.912;13.526;2023-04-27T06:26:10;96344.34;;;8.83;64.56
66479;BME280;53294;47.912;13.526;2023-04-27T06:28:37;96349.72;;;8.77;65.22
66479;BME280;53294;47.912;13.526;2023-04-27T06:31:04;96345.34;;;8.87;64.97
66479;BME280;53294;47.912;13.526;2023-04-27T06:33:32;96345.84;;;8.94;64.65
66479;BME280;53294;47.912;13.526;2023-04-27T06:35:59;96347.28;;;9.15;64.19
66479;BME280;53294;47.912;13.526;2023-04-27T06:38:26;96339.81;;;9.07;65.10
66479;BME280;53294;47.912;13.526;2023-04-27T06:40:53;96346.91;;;8.98;65.34
66479;BME280;53294;47.912;13.526;2023-04-27T06:43:20;96347.28;;;9.15;65.12
66479;BME280;53294;47.912;13.526;2023-04-27T06:45:47;96346.72;;;9.43;64.53
66479;BME280;53294;47.912;13.526;2023-04-27T06:48:14;96348.00;;;9.50;64.76
66479;BME280;53294;47.912;13.526;2023-04-27T06:50:42;96349.38;;;9.72;64.17
66479;BME280;53294;47.912;13.526;2023-04-27T06:53:09;96351.91;;;9.87;63.97
66479;BME280;53294;47.912;13.526;2023-04-27T06:55:36;96348.81;;;9.99;63.75
66479;BME280;53294;47.912;13.526;2023-04-27T06:58:02;96345.47;;;10.32;63.07
66479;BME280;53294;47.912;13.526;2023-04-27T07:00:30;96342.72;;;10.37;63.32
66479;BME280;53294;47.912;13.526;2023-04-27T07:02:57;96345.50;;;10.51;63.33
66479;BME280;53294;47.912;13.526;2023-04-27T07:05:24;96357.09;;;10.65;61.57
66479;BME280;53294;47.912;13.526;2023-04-27T07:07:50;96349.53;;;10.86;62.31
66479;BME280;53294;47.912;13.526;2023-04-27T07:10:17;96347.78;;;10.95;60.91
66479;BME280;53294;47.912;13.526;2023-04-27T07:12:44;96349.81;;;10.66;62.08
66479;BME280;53294;47.912;13.526;2023-04-27T07:15:11;96357.38;;;10.83;61.51
66479;BME280;53294;47.912;13.526;2023-04-27T07:17:37;96348.44;;;10.68;61.40
66479;BME280;53294;47.912;13.526;2023-04-27T07:20:05;96350.72;;;10.80;62.03
66479;BME280;53294;47.912;13.526;2023-04-27T07:22:32;96354.66;;;11.02;61.04
66479;BME280;53294;47.912;13.526;2023-04-27T07:24:59;96355.41;;;11.21;60.17
66479;BME280;53294;47.912;13.526;2023-04-27T07:27:26;96350.81;;;11.08;60.36
66479;BME280;53294;47.912;13.526;2023-04-27T07:29:52;96350.66;;;11.32;59.40
66479;BME280;53294;47.912;13.526;2023-04-27T07:32:20;96354.47;;;11.45;58.66
66479;BME280;53294;47.912;13.526;2023-04-27T07:34:47;96352.00;;;11.48;59.20
66479;BME280;53294;47.912;13.526;2023-04-27T07:37:20;96356.22;;;11.36;59.71
66479;BME280;53294;47.912;13.526;2023-04-27T07:39:48;96355.59;;;11.11;60.95
66479;BME280;53294;47.912;13.526;2023-04-27T07:42:15;96355.84;;;11.28;59.69
66479;BME280;53294;47.912;13.526;2023-04-27T07:44:42;96354.66;;;11.35;59.41
66479;BME280;53294;47.912;13.526;2023-04-27T07:47:09;96354.47;;;11.59;58.86
66479;BME280;53294;47.912;13.526;2023-04-27T07:49:36;96353.00;;;11.66;59.10
66479;BME280;53294;47.912;13.526;2023-04-27T07:52:04;96354.91;;;10.86;59.78
66479;BME280;53294;47.912;13.526;2023-04-27T07:54:30;96367.53;;;10.67;59.90
66479;BME280;53294;47.912;13.526;2023-04-27T07:56:57;96364.13;;;10.42;59.49
66479;BME280;53294;47.912;13.526;2023-04-27T07:59:27;96366.19;;;10.69;59.46
66479;BME280;53294;47.912;13.526;2023-04-27T08:01:54;96367.88;;;10.98;59.32
66479;BME280;53294;47.912;13.526;2023-04-27T08:04:41;96367.84;;;10.46;58.91
66479;BME280;53294;47.912;13.526;2023-04-27T08:07:08;96373.75;;;10.24;60.16
66479;BME280;53294;47.912;13.526;2023-04-27T08:09:36;96376.31;;;10.34;60.27
66479;BME280;53294;47.912;13.526;2023-04-27T08:12:03;96366.19;;;10.50;58.93
66479;BME280;53294;47.912;13.526;2023-04-27T08:14:29;96378.72;;;10.36;58.94
66479;BME280;53294;47.912;13.526;2023-04-27T08:16:56;96373.28;;;10.60;58.29
66479;BME280;53294;47.912;13.526;2023-04-27T08:19:23;96379.44;;;10.60;58.23
66479;BME280;53294;47.912;13.526;2023-04-27T08:21:49;96381.06;;;10.62;58.88
66479;BME280;53294;47.912;13.526;2023-04-27T08:24:16;96386.19;;;10.58;58.65
66479;BME280;53294;47.912;13.526;2023-04-27T08:26:43;96386.88;;;10.26;59.15
66479;BME280;53294;47.912;13.526;2023-04-27T08:29:10;96385.09;;;10.40;59.15
66479;BME280;53294;47.912;13.526;2023-04-27T08:31:52;96393.78;;;10.07;59.52
66479;BME280;53294;47.912;13.526;2023-04-27T08:34:22;96393.28;;;10.05;59.23
66479;BME280;53294;47.912;13.526;2023-04-27T08:36:48;96385.84;;;10.21;59.33
66479;BME280;53294;47.912;13.526;2023-04-27T08:39:15;96387.28;;;10.38;58.53
66479;BME280;53294;47.912;13.526;2023-04-27T08:41:43;96379.16;;;10.43;58.10
66479;BME280;53294;47.912;13.526;2023-04-27T08:44:10;96382.50;;;10.73;57.77
66479;BME280;53294;47.912;13.526;2023-04-27T08:46:37;96373.06;;;10.56;57.84
66479;BME280;53294;47.912;13.526;2023-04-27T08:49:04;96377.13;;;10.73;57.38
66479;BME280;53294;47.912;13.526;2023-04-27T08:51:33;96377.41;;;10.71;56.83
66479;BME280;53294;47.912;13.526;2023-04-27T08:53:59;96374.16;;;10.74;56.99
66479;BME280;53294;47.912;13.526;2023-04-27T08:56:28;96376.09;;;11.07;57.13
66479;BME280;53294;47.912;13.526;2023-04-27T08:58:56;96383.13;;;11.36;57.06
66479;BME280;53294;47.912;13.526;2023-04-27T09:01:24;96383.78;;;11.60;57.25
66479;BME280;53294;47.912;13.526;2023-04-27T09:03:59;96367.44;;;11.57;58.08
66479;BME280;53294;47.912;13.526;2023-04-27T09:06:31;96369.97;;;11.81;57.93
66479;BME280;53294;47.912;13.526;2023-04-27T09:08:59;96381.81;;;11.80;56.80
66479;BME280;53294;47.912;13.526;2023-04-27T09:11:32;96368.81;;;12.01;57.34
66479;BME280;53294;47.912;13.526;2023-04-27T09:14:02;96372.28;;;12.29;57.42
66479;BME280;53294;47.912;13.526;2023-04-27T09:16:29;96363.59;;;12.69;54.83
66479;BME280;53294;47.912;13.526;2023-04-27T09:18:57;96366.13;;;12.88;55.98
66479;BME280;53294;47.912;13.526;2023-04-27T09:21:28;96371.59;;;13.19;56.16
66479;BME280;53294;47.912;13.526;2023-04-27T09:23:55;96360.09;;;13.59;54.30
66479;BME280;53294;47.912;13.526;2023-04-27T09:26:24;96362.81;;;13.59;52.16
66479;BME280;53294;47.912;13.526;2023-04-27T09:28:52;96370.56;;;13.29;53.89
66479;BME280;53294;47.912;13.526;2023-04-27T09:31:20;96363.44;;;13.56;53.61
66479;BME280;53294;47.912;13.526;2023-04-27T09:33:53;96361.56;;;13.65;52.34
66479;BME280;53294;47.912;13.526;2023-04-27T09:36:21;96356.53;;;13.72;53.10
66479;BME280;53294;47.912;13.526;2023-04-27T09:38:50;96353.25;;;13.53;52.41
66479;BME280;53294;47.912;13.526;2023-04-27T09:41:18;96355.50;;;13.91;52.84
66479;BME280;53294;47.912;13.526;2023-04-27T09:43:45;96356.69;;;13.76;52.34
66479;BME280;53294;47.912;13.526;2023-04-27T09:46:13;96353.41;;;13.56;52.21
66479;BME280;53294;47.912;13.526;2023-04-27T09:48:40;96351.47;;;13.48;52.86
66479;BME280;53294;47.912;13.526;2023-04-27T09:51:07;96355.56;;;13.68;52.45
66479;BME280;53294;47.912;13.526;2023-04-27T09:53:51;96340.78;;;14.14;50.84
66479;BME280;53294;47.912;13.526;2023-04-27T09:59:31;96335.50;;;14.84;49.02
66479;BME280;53294;47.912;13.526;2023-04-27T10:02:03;96337.16;;;15.33;45.73
66479;BME280;53294;47.912;13.526;2023-04-27T10:07:28;96332.84;;;15.49;43.35
66479;BME280;53294;47.912;13.526;2023-04-27T10:10:00;96336.91;;;14.82;40.89
66479;BME280;53294;47.912;13.526;2023-04-27T10:12:35;96328.13;;;14.59;42.43
66479;BME280;53294;47.912;13.526;2023-04-27T10:15:16;96332.13;;;15.14;42.61
66479;BME280;53294;47.912;13.526;2023-04-27T10:17:48;96330.81;;;15.29;41.48
66479;BME280;53294;47.912;13.526;2023-04-27T10:20:15;96331.34;;;14.96;40.99
66479;BME280;53294;47.912;13.526;2023-04-27T10:22:45;96331.47;;;15.08;43.64
66479;BME280;53294;47.912;13.526;2023-04-27T10:27:39;96329.13;;;16.10;43.64
66479;BME280;53294;47.912;13.526;2023-04-27T10:30:10;96323.22;;;16.38;44.06
66479;BME280;53294;47.912;13.526;2023-04-27T10:32:49;96323.03;;;16.13;40.82
66479;BME280;53294;47.912;13.526;2023-04-27T10:35:18;96318.41;;;16.13;42.19
66479;BME280;53294;47.912;13.526;2023-04-27T10:37:46;96321.28;;;16.38;43.50
66479;BME280;53294;47.912;13.526;2023-04-27T10:40:14;96322.97;;;16.94;42.66
66479;BME280;53294;47.912;13.526;2023-04-27T10:42:46;96311.16;;;17.11;44.14
66479;BME280;53294;47.912;13.526;2023-04-27T10:45:25;96312.81;;;17.36;42.65
66479;BME280;53294;47.912;13.526;2023-04-27T10:47:59;96307.06;;;17.50;38.15
66479;BME280;53294;47.912;13.526;2023-04-27T10:50:26;96309.50;;;17.31;38.26
66479;BME280;53294;47.912;13.526;2023-04-27T10:52:53;96310.75;;;17.33;40.51
66479;BME280;53294;47.912;13.526;2023-04-27T10:55:21;96295.66;;;17.82;40.27
66479;BME280;53294;47.912;13.526;2023-04-27T10:57:52;96291.75;;;18.04;40.81
66479;BME280;53294;47.912;13.526;2023-04-27T11:00:26;96288.63;;;18.30;39.12
66479;BME280;53294;47.912;13.526;2023-04-27T11:02:54;96290.31;;;18.47;37.02
66479;BME280;53294;47.912;13.526;2023-04-27T11:05:24;96283.38;;;18.62;37.46
66479;BME280;53294;47.912;13.526;2023-04-27T11:08:08;96284.56;;;18.24;36.46
66479;BME280;53294;47.912;13.526;2023-04-27T11:10:48;96280.72;;;18.25;38.57
66479;BME280;53294;47.912;13.526;2023-04-27T11:18:18;96287.03;;;18.54;36.25
66479;BME280;53294;47.912;13.526;2023-04-27T11:20:47;96282.22;;;17.85;39.49
66479;BME280;53294;47.912;13.526;2023-04-27T11:25:48;96275.25;;;18.50;35.01
66479;BME280;53294;47.912;13.526;2023-04-27T11:28:16;96283.69;;;18.20;38.14
66479;BME280;53294;47.912;13.526;2023-04-27T11:30:43;96272.53;;;18.37;36.54
66479;BME280;53294;47.912;13.526;2023-04-27T11:33:10;96276.72;;;16.90;37.21
66479;BME280;53294;47.912;13.526;2023-04-27T11:35:37;96269.09;;;16.83;37.40
66479;BME280;53294;47.912;13.526;2023-04-27T11:38:05;96277.03;;;16.89;38.07
66479;BME280;53294;47.912;13.526;2023-04-27T11:40:31;96272.31;;;16.98;36.27
66479;BME280;53294;47.912;13.526;2023-04-27T11:43:01;96267.31;;;17.21;38.33
66479;BME280;53294;47.912;13.526;2023-04-27T11:45:30;96272.00;;;16.99;37.25
66479;BME280;53294;47.912;13.526;2023-04-27T11:47:57;96272.22;;;17.52;39.91
66479;BME280;53294;47.912;13.526;2023-04-27T11:50:24;96263.00;;;18.43;38.15
66479;BME280;53294;47.912;13.526;2023-04-27T11:52:52;96267.78;;;19.03;37.17
66479;BME280;53294;47.912;13.526;2023-04-27T11:55:21;96261.88;;;19.29;36.94
66479;BME280;53294;47.912;13.526;2023-04-27T11:57:55;96259.81;;;19.54;37.48
66479;BME280;53294;47.912;13.526;2023-04-27T12:00:22;96255.91;;;19.55;38.14
66479;BME280;53294;47.912;13.526;2023-04-27T12:02:49;96254.06;;;19.28;37.06
66479;BME280;53294;47.912;13.526;2023-04-27T12:05:16;96258.81;;;19.31;35.78
66479;BME280;53294;47.912;13.526;2023-04-27T12:07:45;96259.06;;;19.42;36.62
66479;BME280;53294;47.912;13.526;2023-04-27T12:10:12;96259.63;;;19.03;36.45
66479;BME280;53294;47.912;13.526;2023-04-27T12:12:39;96254.00;;;18.96;38.29
66479;BME280;53294;47.912;13.526;2023-04-27T12:15:06;96258.97;;;19.70;35.49
66479;BME280;53294;47.912;13.526;2023-04-27T12:17:34;96246.88;;;19.83;36.85
66479;BME280;53294;47.912;13.526;2023-04-27T12:20:01;96262.13;;;20.04;36.05
66479;BME280;53294;47.912;13.526;2023-04-27T12:22:27;96266.53;;;19.61;36.71
66479;BME280;53294;47.912;13.526;2023-04-27T12:24:54;96260.59;;;19.39;36.20
66479;BME280;53294;47.912;13.526;2023-04-27T12:27:21;96267.78;;;19.79;35.61
66479;BME280;53294;47.912;13.526;2023-04-27T12:29:48;96267.97;;;19.86;36.09
66479;BME280;53294;47.912;13.526;2023-04-27T12:32:14;96264.13;;;19.87;36.98
66479;BME280;53294;47.912;13.526;2023-04-27T12:34:41;96269.38;;;19.80;37.35
66479;BME280;53294;47.912;13.526;2023-04-27T12:37:08;96266.53;;;19.61;37.61
66479;BME280;53294;47.912;13.526;2023-04-27T12:39:34;96265.13;;;19.67;36.98
66479;BME280;53294;47.912;13.526;2023-04-27T12:42:02;96271.22;;;19.00;34.61
66479;BME280;53294;47.912;13.526;2023-04-27T12:44:29;96268.63;;;18.63;35.00
66479;BME280;53294;47.912;13.526;2023-04-27T12:46:55;96277.06;;;18.33;34.05
66479;BME280;53294;47.912;13.526;2023-04-27T12:49:22;96275.25;;;18.37;35.89
66479;BME280;53294;47.912;13.526;2023-04-27T12:51:49;96279.78;;;18.45;37.68
66479;BME280;53294;47.912;13.526;2023-04-27T12:54:17;96274.19;;;18.14;38.73
66479;BME280;53294;47.912;13.526;2023-04-27T12:56:44;96273.91;;;18.43;37.50
66479;BME280;53294;47.912;13.526;2023-04-27T12:59:10;96266.00;;;18.26;38.17
66479;BME280;53294;47.912;13.526;2023-04-27T13:01:37;96273.84;;;18.03;36.39
66479;BME280;53294;47.912;13.526;2023-04-27T13:04:05;96270.75;;;18.29;39.31
66479;BME280;53294;47.912;13.526;2023-04-27T13:06:32;96270.00;;;18.57;36.48
66479;BME280;53294;47.912;13.526;2023-04-27T13:08:59;96282.38;;;18.54;36.79
66479;BME280;53294;47.912;13.526;2023-04-27T13:11:26;96273.88;;;18.56;37.03
66479;BME280;53294;47.912;13.526;2023-04-27T13:13:53;96266.63;;;18.88;36.71